createdAt,value
2019-03-12T00:00:13.830Z,67.67
2019-03-12T00:02:42.293Z,64.22
2019-03-12T00:05:10.760Z,62.65
2019-03-12T00:07:39.238Z,61.65
2019-03-12T00:10:09.138Z,74.00
2019-03-12T00:12:37.611Z,75.50
2019-03-12T00:15:07.896Z,75.87
2019-03-12T00:17:36.358Z,64.62
2019-03-12T00:20:06.572Z,70.25
2019-03-12T00:22:35.115Z,61.77
2019-03-12T00:25:03.694Z,51.92
2019-03-12T00:27:32.170Z,60.95
2019-03-12T00:30:00.642Z,95.35
2019-03-12T00:32:29.119Z,72.35
2019-03-12T00:34:57.583Z,96.92
2019-03-12T00:37:26.058Z,57.48
2019-03-12T00:39:54.575Z,61.83
2019-03-12T00:42:23.041Z,69.55
2019-03-12T00:44:51.987Z,49.95
2019-03-12T00:47:20.487Z,57.90
2019-03-12T00:49:48.979Z,61.45
2019-03-12T00:52:17.447Z,61.20
2019-03-12T00:54:45.942Z,64.70
2019-03-12T00:57:14.441Z,61.98
2019-03-12T00:59:42.951Z,74.50
2019-03-12T01:02:11.422Z,70.87
2019-03-12T01:04:39.885Z,66.65
2019-03-12T01:07:08.366Z,58.90
2019-03-12T01:09:36.897Z,63.55
2019-03-12T01:12:05.731Z,69.45
2019-03-12T01:14:34.191Z,90.90
2019-03-12T01:17:02.691Z,74.85
2019-03-12T01:19:31.183Z,84.60
2019-03-12T01:21:59.849Z,67.90
2019-03-12T01:24:28.398Z,60.60
2019-03-12T01:26:56.886Z,69.05
2019-03-12T01:29:25.427Z,65.37
2019-03-12T01:31:53.891Z,60.60
2019-03-12T01:34:22.354Z,65.52
2019-03-12T01:36:50.839Z,61.33
2019-03-12T01:39:19.321Z,67.80
2019-03-12T01:41:47.815Z,70.97
2019-03-12T01:44:16.282Z,65.40
2019-03-12T01:46:44.776Z,66.20
2019-03-12T01:49:13.242Z,61.10
2019-03-12T01:51:41.773Z,60.70
2019-03-12T01:54:10.238Z,56.40
2019-03-12T01:56:38.705Z,67.32
2019-03-12T01:59:07.196Z,63.48
2019-03-12T02:01:35.707Z,90.92
2019-03-12T02:04:04.323Z,70.75
2019-03-12T02:06:32.817Z,73.05
2019-03-12T02:09:01.287Z,65.75
2019-03-12T02:11:30.026Z,61.15
2019-03-12T02:13:58.520Z,49.00
2019-03-12T02:16:26.981Z,51.60
2019-03-12T02:18:55.486Z,62.93
2019-03-12T02:21:23.952Z,52.05
2019-03-12T02:23:52.417Z,47.53
2019-03-12T02:26:20.924Z,50.65
2019-03-12T02:28:49.387Z,44.58
2019-03-12T02:31:17.920Z,50.65
2019-03-12T02:33:46.385Z,45.65
2019-03-12T02:36:14.850Z,47.50
2019-03-12T02:38:43.343Z,51.50
2019-03-12T02:41:11.809Z,43.60
2019-03-12T02:43:40.285Z,40.43
2019-03-12T02:46:08.828Z,41.10
2019-03-12T02:48:37.289Z,51.98
2019-03-12T02:51:05.847Z,58.90
2019-03-12T02:53:34.317Z,46.28
2019-03-12T02:56:02.816Z,45.60
2019-03-12T02:58:31.279Z,49.77
2019-03-12T03:00:59.771Z,48.55
2019-03-12T03:03:28.247Z,50.48
2019-03-12T03:06:01.555Z,49.08
2019-03-12T03:08:31.679Z,49.13
2019-03-12T03:11:00.173Z,48.95
2019-03-12T03:13:28.764Z,52.15
2019-03-12T03:15:57.218Z,42.83
2019-03-12T03:18:25.738Z,79.82
2019-03-12T03:20:54.194Z,42.93
2019-03-12T03:23:22.696Z,62.17
2019-03-12T03:25:51.187Z,70.90
2019-03-12T03:28:19.671Z,70.55
2019-03-12T03:30:48.149Z,59.08
2019-03-12T03:33:16.665Z,58.40
2019-03-12T03:35:45.118Z,101.33
2019-03-12T03:38:13.659Z,63.35
2019-03-12T03:40:42.225Z,72.15
2019-03-12T03:43:10.687Z,59.13
2019-03-12T03:45:39.224Z,135.88
2019-03-12T03:48:07.740Z,82.85
2019-03-12T03:50:36.195Z,68.60
2019-03-12T03:53:04.766Z,141.62
2019-03-12T03:55:33.231Z,82.10
2019-03-12T03:58:01.803Z,108.42
2019-03-12T04:00:30.339Z,95.77
2019-03-12T04:02:58.839Z,137.37
2019-03-12T04:05:27.306Z,215.55
2019-03-12T04:07:55.867Z,148.85
2019-03-12T04:10:24.335Z,95.72
2019-03-12T04:12:52.820Z,137.07
2019-03-12T04:15:21.304Z,81.75
2019-03-12T04:17:49.866Z,79.20
2019-03-12T04:20:19.267Z,76.35
2019-03-12T04:22:47.942Z,99.70
2019-03-12T04:25:16.648Z,88.95
2019-03-12T04:27:45.138Z,63.40
2019-03-12T04:30:17.648Z,71.35
2019-03-12T04:32:46.315Z,65.90
2019-03-12T04:35:30.061Z,76.85
2019-03-12T04:37:58.555Z,72.85
2019-03-12T04:40:27.024Z,76.07
2019-03-12T04:42:55.501Z,57.62
2019-03-12T04:45:23.979Z,67.27
2019-03-12T04:47:52.474Z,48.28
2019-03-12T04:50:20.934Z,74.20
2019-03-12T04:52:49.426Z,79.87
2019-03-12T04:55:18.039Z,75.12
2019-03-12T04:57:46.568Z,90.17
2019-03-12T05:00:21.314Z,113.68
2019-03-12T05:02:49.781Z,123.78
2019-03-12T05:05:18.285Z,130.90
2019-03-12T05:07:46.756Z,160.45
2019-03-12T05:10:16.874Z,107.80
2019-03-12T05:12:45.409Z,117.40
2019-03-12T05:15:16.191Z,133.70
2019-03-12T05:17:45.523Z,138.75
2019-03-12T05:20:15.898Z,115.97
2019-03-12T05:22:44.429Z,84.92
2019-03-12T05:25:14.273Z,77.80
2019-03-12T05:27:43.195Z,97.57
2019-03-12T05:30:17.707Z,128.82
2019-03-12T05:32:46.232Z,99.52
2019-03-12T05:35:14.902Z,129.27
2019-03-12T05:37:43.631Z,179.65
2019-03-12T05:40:13.948Z,111.72
2019-03-12T05:42:42.512Z,153.12
2019-03-12T05:45:12.919Z,148.87
2019-03-12T05:47:41.420Z,126.55
2019-03-12T05:50:12.568Z,119.72
2019-03-12T05:52:41.067Z,110.78
2019-03-12T05:55:11.173Z,115.95
2019-03-12T05:57:39.672Z,104.58
2019-03-12T06:00:11.416Z,105.35
2019-03-12T06:05:08.283Z,80.20
2019-03-12T06:07:36.775Z,73.37
2019-03-12T06:10:08.146Z,72.92
2019-03-12T06:12:36.640Z,59.30
2019-03-12T06:15:07.991Z,96.28
2019-03-12T06:17:36.522Z,76.30
2019-03-12T06:20:08.033Z,69.40
2019-03-12T06:22:36.512Z,123.22
2019-03-12T06:25:05.846Z,94.00
2019-03-12T06:27:34.304Z,99.80
2019-03-12T06:30:02.872Z,87.80
2019-03-12T06:32:33.002Z,91.72
2019-03-12T06:35:03.133Z,138.90
2019-03-12T06:37:51.271Z,206.40
2019-03-12T06:40:21.454Z,168.17
2019-03-12T06:42:57.311Z,119.30
2019-03-12T06:45:27.477Z,131.65
2019-03-12T06:48:15.376Z,181.75
2019-03-12T06:50:45.490Z,67.80
2019-03-12T06:53:15.633Z,121.28
2019-03-12T06:56:01.931Z,115.90
2019-03-12T06:58:48.510Z,145.20
2019-03-12T07:01:33.873Z,130.10
2019-03-12T07:04:13.087Z,139.65
2019-03-12T07:06:49.148Z,54.63
2019-03-12T07:09:35.613Z,137.88
2019-03-12T07:12:08.507Z,112.75
2019-03-12T07:14:54.943Z,138.25
2019-03-12T07:17:25.060Z,207.22
2019-03-12T07:20:13.291Z,188.70
2019-03-12T07:22:46.565Z,85.85
2019-03-12T07:25:19.476Z,85.60
2019-03-12T07:27:58.538Z,66.22
2019-03-12T07:30:34.458Z,96.55
2019-03-12T07:33:10.093Z,95.57
2019-03-12T07:35:40.204Z,87.42
2019-03-12T07:38:28.751Z,68.65
2019-03-12T07:41:23.580Z,105.17
2019-03-12T07:43:54.950Z,107.37
2019-03-12T07:46:25.042Z,87.75
2019-03-12T07:48:58.752Z,112.05
2019-03-12T07:51:44.813Z,58.23
2019-03-12T07:54:14.926Z,82.12
2019-03-12T07:56:45.034Z,81.47
2019-03-12T07:59:14.994Z,62.88
2019-03-12T08:01:47.760Z,65.08
2019-03-12T08:04:32.905Z,69.10
2019-03-12T08:07:08.809Z,60.88
2019-03-12T08:09:50.905Z,76.00
2019-03-12T08:12:34.413Z,68.60
2019-03-12T08:15:05.309Z,77.03
2019-03-12T08:17:51.815Z,54.15
2019-03-12T08:20:21.951Z,54.93
2019-03-12T08:22:52.060Z,54.65
2019-03-12T08:25:38.360Z,72.95
2019-03-12T08:28:11.018Z,60.65
2019-03-12T08:30:53.324Z,40.67
2019-03-12T08:33:25.897Z,50.15
2019-03-12T08:35:58.820Z,54.48
2019-03-12T08:38:46.556Z,50.45
2019-03-12T08:41:16.769Z,60.43
2019-03-12T08:43:51.342Z,69.12
2019-03-12T08:46:22.313Z,62.45
2019-03-12T08:51:25.620Z,90.55
2019-03-12T08:54:13.788Z,70.30
2019-03-12T08:56:52.880Z,71.77
2019-03-12T08:59:39.200Z,62.93
2019-03-12T09:02:15.310Z,59.40
2019-03-12T09:04:45.415Z,73.35
2019-03-12T09:07:21.490Z,46.60
2019-03-12T09:09:51.601Z,43.52
2019-03-12T09:12:21.734Z,54.38
2019-03-12T09:15:10.045Z,63.68
2019-03-12T09:17:40.179Z,48.23
2019-03-12T09:20:11.924Z,56.68
2019-03-12T09:22:47.503Z,213.68
2019-03-12T09:25:26.792Z,51.75
2019-03-12T09:28:15.146Z,75.75
2019-03-12T09:30:51.278Z,41.88
2019-03-12T09:33:24.091Z,41.23
2019-03-12T09:36:03.001Z,61.48
2019-03-12T09:38:42.382Z,71.55
2019-03-12T09:41:15.199Z,46.85
2019-03-12T09:43:48.375Z,33.30
2019-03-12T09:46:21.370Z,30.72
2019-03-12T09:48:54.498Z,31.45
2019-03-12T09:51:24.681Z,27.87
2019-03-12T09:54:11.126Z,23.10
2019-03-12T09:56:50.367Z,34.55
2019-03-12T09:59:36.928Z,36.63
2019-03-12T10:02:21.969Z,31.77
2019-03-12T10:04:54.810Z,37.73
2019-03-12T10:07:24.917Z,26.07
2019-03-12T10:09:58.240Z,32.40
2019-03-12T10:12:31.020Z,30.52
2019-03-12T10:15:17.587Z,27.70
2019-03-12T10:18:02.455Z,151.32
2019-03-12T10:20:31.132Z,115.67
2019-03-12T10:23:06.956Z,39.98
2019-03-12T10:25:52.993Z,36.03
2019-03-12T10:28:34.881Z,72.30
2019-03-12T10:31:10.822Z,40.15
2019-03-12T10:33:57.490Z,27.05
2019-03-12T10:36:30.795Z,28.85
2019-03-12T10:41:56.070Z,56.13
2019-03-12T10:44:44.291Z,29.12
2019-03-12T10:47:14.395Z,14.85
2019-03-12T10:49:42.854Z,24.07
2019-03-12T10:52:11.345Z,35.25
2019-03-12T10:54:39.804Z,16.45
2019-03-12T10:57:08.389Z,19.50
2019-03-12T10:59:36.857Z,40.67
2019-03-12T11:02:05.487Z,22.35
2019-03-12T11:04:33.951Z,18.02
2019-03-12T11:07:15.553Z,34.65
2019-03-12T11:09:32.678Z,33.10
2019-03-12T11:12:01.098Z,29.72
2019-03-12T11:14:29.582Z,11.93
2019-03-12T11:16:58.048Z,11.00
2019-03-12T11:19:26.515Z,19.98
2019-03-12T11:21:55.007Z,29.27
2019-03-12T11:24:23.500Z,26.05
2019-03-12T11:26:52.004Z,29.45
2019-03-12T11:29:20.467Z,19.85
2019-03-12T11:31:48.934Z,34.00
2019-03-12T11:34:17.434Z,173.90
2019-03-12T11:36:47.149Z,24.75
2019-03-12T11:39:15.690Z,20.45
2019-03-12T11:41:44.163Z,41.48
2019-03-12T11:44:12.888Z,43.10
2019-03-12T11:46:45.332Z,61.68
2019-03-12T11:49:11.789Z,40.05
2019-03-12T11:51:40.276Z,48.60
2019-03-12T11:54:10.009Z,21.68
2019-03-12T11:56:38.834Z,35.60
2019-03-12T11:59:07.291Z,24.92
2019-03-12T12:01:35.763Z,34.83
2019-03-12T12:04:04.371Z,29.12
2019-03-12T12:06:32.970Z,31.82
2019-03-12T12:09:01.530Z,30.97
2019-03-12T12:11:29.997Z,13.98
2019-03-12T12:13:58.635Z,26.77
2019-03-12T12:16:27.108Z,32.60
2019-03-12T12:18:55.582Z,38.02
2019-03-12T12:21:24.084Z,54.48
2019-03-12T12:23:52.547Z,59.63
2019-03-12T12:26:21.023Z,20.77
2019-03-12T12:28:49.494Z,16.80
2019-03-12T12:31:17.972Z,31.80
2019-03-12T12:33:46.460Z,32.93
2019-03-12T12:36:15.078Z,34.27
2019-03-12T12:38:43.669Z,24.77
2019-03-12T12:41:12.161Z,23.77
2019-03-12T12:43:40.646Z,34.33
2019-03-12T12:46:09.129Z,35.58
2019-03-12T12:48:37.617Z,16.20
2019-03-12T12:51:06.143Z,27.55
2019-03-12T12:53:35.096Z,22.22
2019-03-12T12:56:03.733Z,18.37
2019-03-12T12:58:32.767Z,28.47
2019-03-12T13:01:01.313Z,42.80
2019-03-12T13:03:29.855Z,93.25
2019-03-12T13:05:58.393Z,55.43
2019-03-12T13:08:26.881Z,57.33
2019-03-12T13:10:55.408Z,87.50
2019-03-12T13:13:23.914Z,24.43
2019-03-12T13:15:52.357Z,28.42
2019-03-12T13:18:20.856Z,48.00
2019-03-12T13:20:49.329Z,37.40
2019-03-12T13:23:17.854Z,27.62
2019-03-12T13:25:46.339Z,22.05
2019-03-12T13:28:14.889Z,46.48
2019-03-12T13:30:43.429Z,32.03
2019-03-12T13:33:11.974Z,37.15
2019-03-12T13:35:40.445Z,44.18
2019-03-12T13:38:08.980Z,38.63
2019-03-12T13:40:37.454Z,78.80
2019-03-12T13:43:06.013Z,72.42
2019-03-12T13:45:34.529Z,55.12
2019-03-12T13:48:03.455Z,35.17
2019-03-12T13:50:32.230Z,58.38
2019-03-12T13:53:00.807Z,60.85
2019-03-12T13:55:29.387Z,47.08
2019-03-12T13:57:57.902Z,115.28
2019-03-12T14:00:28.708Z,179.87
2019-03-12T14:02:57.317Z,124.85
2019-03-12T14:05:25.860Z,103.35
2019-03-12T14:07:54.461Z,198.10
2019-03-12T14:10:23.970Z,76.40
2019-03-12T14:12:53.854Z,60.08
2019-03-12T14:15:33.446Z,63.38
2019-03-12T14:18:02.103Z,36.77
2019-03-12T14:20:45.245Z,25.82
2019-03-12T14:23:16.524Z,47.15
2019-03-12T14:25:45.544Z,64.10
2019-03-12T14:28:14.238Z,90.40
2019-03-12T14:30:42.733Z,90.97
2019-03-12T14:33:11.575Z,120.40
2019-03-12T14:35:50.882Z,73.47
2019-03-12T14:38:10.589Z,107.00
2019-03-12T14:40:39.238Z,116.37
2019-03-12T14:43:08.037Z,79.50
2019-03-12T14:45:38.356Z,64.95
2019-03-12T14:48:08.398Z,27.95
2019-03-12T14:50:36.884Z,62.08
2019-03-12T14:53:20.986Z,26.93
2019-03-12T14:55:38.923Z,28.60
2019-03-12T14:58:07.480Z,61.58
2019-03-12T15:00:36.008Z,94.00
2019-03-12T15:03:04.507Z,734.80
2019-03-12T15:05:33.311Z,444.85
2019-03-12T15:08:01.864Z,1557.47
2019-03-12T15:10:30.409Z,166.03
2019-03-12T15:12:58.907Z,509.07
2019-03-12T15:15:27.385Z,86.28
2019-03-12T15:17:55.889Z,177.90
2019-03-12T15:20:24.389Z,61.90
2019-03-12T15:22:52.874Z,76.70
2019-03-12T15:25:21.368Z,166.95
2019-03-12T15:27:49.831Z,81.50
2019-03-12T15:30:20.950Z,73.42
2019-03-12T15:32:49.477Z,65.75
2019-03-12T15:35:18.009Z,111.72
2019-03-12T15:37:46.462Z,99.55
2019-03-12T15:40:15.293Z,89.83
2019-03-12T15:42:43.758Z,66.55
2019-03-12T15:45:13.992Z,123.42
2019-03-12T15:47:42.535Z,102.47
2019-03-12T15:50:13.532Z,43.10
2019-03-12T15:52:42.027Z,114.67
2019-03-12T15:55:10.620Z,48.65
2019-03-12T15:57:39.167Z,114.35
2019-03-12T16:00:10.681Z,164.20
2019-03-12T16:02:39.172Z,150.12
2019-03-12T16:05:08.891Z,120.17
2019-03-12T16:07:37.433Z,120.10
2019-03-12T16:10:14.202Z,270.52
2019-03-12T16:12:42.707Z,90.25
2019-03-12T16:15:12.939Z,87.02
2019-03-12T16:17:41.415Z,72.70
2019-03-12T16:20:15.648Z,70.55
2019-03-12T16:22:44.851Z,88.30
2019-03-12T16:25:13.662Z,63.33
2019-03-12T16:27:42.117Z,52.98
2019-03-12T16:30:13.795Z,64.35
2019-03-12T16:32:42.290Z,97.37
2019-03-12T16:35:10.984Z,98.40
2019-03-12T16:37:39.523Z,65.40
2019-03-12T16:40:15.888Z,61.70
2019-03-12T16:42:44.417Z,68.95
2019-03-12T16:45:14.537Z,67.10
2019-03-12T16:47:43.006Z,91.47
2019-03-12T16:50:14.185Z,104.45
2019-03-12T16:52:42.645Z,115.50
2019-03-12T16:55:13.245Z,107.70
2019-03-12T16:57:41.809Z,102.32
2019-03-12T17:00:18.301Z,120.97
2019-03-12T17:02:47.108Z,332.45
2019-03-12T17:05:15.799Z,269.57
2019-03-12T17:07:44.523Z,581.15
2019-03-12T17:10:21.146Z,496.03
2019-03-12T17:12:49.609Z,344.05
2019-03-12T17:15:26.181Z,220.88
2019-03-12T17:17:54.697Z,220.22
2019-03-12T17:20:23.209Z,257.30
2019-03-12T17:22:51.685Z,287.35
2019-03-12T17:25:20.275Z,310.05
2019-03-12T17:27:51.402Z,280.32
2019-03-12T17:30:24.860Z,199.23
2019-03-12T17:32:53.421Z,199.97
2019-03-12T17:35:33.919Z,222.12
2019-03-12T17:38:02.487Z,223.85
2019-03-12T17:40:31.024Z,337.57
2019-03-12T17:42:59.520Z,341.38
2019-03-12T17:45:27.988Z,244.95
2019-03-12T17:47:56.520Z,176.87
2019-03-12T17:50:25.155Z,271.75
2019-03-12T17:52:53.622Z,424.00
2019-03-12T17:55:22.157Z,393.17
2019-03-12T17:57:51.216Z,311.73
2019-03-12T18:00:30.035Z,328.70
2019-03-12T18:02:58.648Z,299.70
2019-03-12T18:05:27.179Z,293.48
2019-03-12T18:07:55.724Z,262.70
2019-03-12T18:10:24.203Z,285.85
2019-03-12T18:12:52.810Z,311.98
2019-03-12T18:15:21.964Z,312.85
2019-03-12T18:17:50.495Z,303.73
2019-03-12T18:20:22.862Z,262.20
2019-03-12T18:22:51.329Z,306.90
2019-03-12T18:25:31.542Z,266.93
2019-03-12T18:28:00.041Z,262.93
2019-03-12T18:30:28.501Z,286.12
2019-03-12T18:32:57.161Z,309.65
2019-03-12T18:35:26.845Z,227.62
2019-03-12T18:37:55.379Z,251.60
2019-03-12T18:40:30.270Z,268.30
2019-03-12T18:42:58.793Z,282.53
2019-03-12T18:45:31.941Z,293.07
2019-03-12T18:48:00.443Z,204.45
2019-03-12T18:50:29.056Z,229.78
2019-03-12T18:52:57.740Z,183.70
2019-03-12T18:55:38.111Z,202.93
2019-03-12T18:58:07.196Z,211.68
2019-03-12T19:00:36.700Z,265.57
2019-03-12T19:03:05.229Z,198.90
2019-03-12T19:05:33.742Z,292.60
2019-03-12T19:08:02.335Z,176.02
2019-03-12T19:10:30.914Z,153.97
2019-03-12T19:12:59.514Z,152.93
2019-03-12T19:15:28.128Z,129.57
2019-03-12T19:17:56.746Z,129.80
2019-03-12T19:20:25.382Z,239.15
2019-03-12T19:22:53.894Z,134.00
2019-03-12T19:25:25.468Z,141.82
2019-03-12T19:27:59.736Z,148.53
2019-03-12T19:30:25.148Z,129.55
2019-03-12T19:33:10.435Z,158.87
2019-03-12T19:35:38.916Z,184.50
2019-03-12T19:38:07.619Z,187.80
2019-03-12T19:40:41.918Z,192.92
2019-03-12T19:43:10.619Z,235.63
2019-03-12T19:45:39.280Z,224.65
2019-03-12T19:48:07.888Z,201.00
2019-03-12T19:50:36.638Z,219.30
2019-03-12T19:53:06.839Z,187.50
2019-03-12T19:55:50.397Z,167.07
2019-03-12T19:58:19.032Z,173.65
2019-03-12T20:00:48.436Z,169.82
2019-03-12T20:03:17.086Z,170.15
2019-03-12T20:05:45.685Z,225.47
2019-03-12T20:08:14.255Z,320.12
2019-03-12T20:11:13.797Z,387.70
2019-03-12T20:14:02.022Z,954.12
2019-03-12T20:16:36.177Z,1112.88
2019-03-12T20:19:24.254Z,872.80
2019-03-12T20:22:18.425Z,1415.80
2019-03-12T20:25:23.349Z,1447.23
2019-03-12T20:28:29.690Z,616.17
2019-03-12T20:31:20.554Z,188.22
2019-03-12T20:34:14.626Z,187.20
2019-03-12T20:37:15.077Z,533.30
2019-03-12T20:40:12.282Z,540.05
2019-03-12T20:43:17.257Z,552.42
2019-03-12T20:46:22.018Z,464.25
2019-03-12T20:49:11.593Z,364.57
2019-03-12T20:52:16.777Z,322.17
2019-03-12T20:55:21.676Z,225.13
2019-03-12T20:58:12.906Z,148.17
2019-03-12T21:01:02.717Z,154.73
2019-03-12T21:03:37.021Z,148.70
2019-03-12T21:06:31.377Z,142.43
2019-03-12T21:09:20.361Z,131.45
2019-03-12T21:12:03.823Z,133.10
2019-03-12T21:14:50.509Z,126.15
2019-03-12T21:17:22.027Z,197.53
2019-03-12T21:20:16.596Z,141.65
2019-03-12T21:23:00.252Z,132.95
2019-03-12T21:25:37.363Z,148.93
2019-03-12T21:28:14.478Z,122.90
2019-03-12T21:30:43.122Z,150.82
2019-03-12T21:33:15.607Z,126.72
2019-03-12T21:35:43.122Z,114.60
2019-03-12T21:38:11.580Z,127.12
2019-03-12T21:40:40.109Z,128.82
2019-03-12T21:43:08.574Z,237.68
2019-03-12T21:45:37.291Z,1119.75
2019-03-12T21:48:05.860Z,458.60
2019-03-12T21:50:34.397Z,1421.70
2019-03-12T21:53:02.879Z,496.83
2019-03-12T21:55:31.373Z,770.57
2019-03-12T21:57:59.948Z,746.42
2019-03-12T22:00:28.516Z,764.08
2019-03-12T22:02:57.051Z,574.50
2019-03-12T22:05:27.196Z,524.23
2019-03-12T22:07:55.692Z,237.55
2019-03-12T22:10:24.157Z,140.47
2019-03-12T22:12:52.684Z,144.37
2019-03-12T22:15:21.151Z,257.48
2019-03-12T22:17:51.129Z,154.53
2019-03-12T22:20:19.601Z,263.10
2019-03-12T22:22:58.585Z,234.65
2019-03-12T22:25:27.063Z,171.32
2019-03-12T22:27:55.556Z,274.98
2019-03-12T22:30:25.660Z,153.97
2019-03-12T22:32:54.213Z,114.37
2019-03-12T22:35:22.824Z,121.90
2019-03-12T22:37:51.390Z,111.17
2019-03-12T22:40:19.858Z,134.95
2019-03-12T22:42:48.351Z,154.93
2019-03-12T22:45:17.081Z,143.25
2019-03-12T22:47:45.542Z,134.18
2019-03-12T22:50:15.877Z,139.00
2019-03-12T22:52:44.337Z,142.18
2019-03-12T22:55:14.073Z,157.07
2019-03-12T22:57:42.711Z,141.10
2019-03-12T23:00:19.573Z,135.15
2019-03-12T23:02:48.027Z,126.33
2019-03-12T23:05:16.815Z,124.50
2019-03-12T23:07:46.714Z,127.05
2019-03-12T23:10:17.351Z,127.10
2019-03-12T23:12:46.153Z,109.48
2019-03-12T23:15:19.654Z,126.53
2019-03-12T23:17:48.267Z,104.85
2019-03-12T23:20:19.721Z,114.95
2019-03-12T23:22:51.784Z,99.80
2019-03-12T23:25:18.766Z,90.15
2019-03-12T23:27:47.379Z,83.87
2019-03-12T23:30:18.301Z,77.00
2019-03-12T23:32:46.889Z,63.23
2019-03-12T23:35:15.568Z,80.20
2019-03-12T23:37:44.252Z,97.70
2019-03-12T23:40:19.427Z,81.57
2019-03-12T23:42:48.059Z,93.58
2019-03-12T23:45:17.834Z,89.30
2019-03-12T23:47:49.965Z,89.65
2019-03-12T23:50:18.379Z,70.08
2019-03-12T23:52:47.057Z,74.72
2019-03-12T23:55:17.983Z,80.57
2019-03-12T23:57:46.858Z,72.93
